»·PEaware :: N612C L88-KSBP

N612C :: L88-KSBP

FLIGHT INFORMATION

Flight Status: Arrived
Operator: Privately registered:
United States
More flights under this callsign
Pilot: Don H. (15606)
Aircraft: CESSNA 172 SKYHAWK
(C172)
More flights by this aircraft type
Origin: L88 New Cuyama
United States
Destination: KSBP San Luis Co Regl
United States
More flights between these airports :: More routes between these airports
Route: DCT KSBP
File this flight plan on PilotEdge
Remarks: CAT II
Altitude:
(Current/Filed)
4,500ft
Speed:
(Current/Filed)
110kts
Departed: 06-Oct-18 10:26 AM
Arrived: 06-Oct-18 10:55 AM
Distance/Time
Traveled:
50nm/0:28
Distance/Time
To Go:
Arrived

Flight Plot

Page will automatically refresh every two minutes.

Flight plan parsing failed; only flown route is shown


Map Options




Map Legend


Flown Route
Filed Route
Departure Airport
Arrival Airport
Navaid (VOR, NDB)
Fix

Horizontal Profiles

Position Reports

Time Latitude Longitude Heading Altitude Ground
Speed
06-Oct-18 10:18 34.942827 -119.690301 202 2207ft 0kts
06-Oct-18 10:19 34.942827 -119.690301 202 2207ft 0kts
06-Oct-18 10:20 34.942827 -119.690301 202 2207ft 0kts
06-Oct-18 10:21 34.942827 -119.690301 202 2207ft 0kts
06-Oct-18 10:22 34.942827 -119.690301 202 2207ft 0kts
06-Oct-18 10:23 34.942740 -119.690629 300 2207ft 9kts
06-Oct-18 10:24 34.942551 -119.691066 127 2207ft 4kts
06-Oct-18 10:25 34.940886 -119.687893 116 2207ft 23kts
06-Oct-18 10:26 34.938080 -119.681049 116 2207ft 13kts
06-Oct-18 10:27 34.937751 -119.680199 299 2207ft 0kts
06-Oct-18 10:28 34.938562 -119.682239 293 2207ft 58kts
06-Oct-18 10:29 34.947096 -119.706349 290 3043ft 80kts
06-Oct-18 10:30 34.954713 -119.730899 289 3907ft 82kts
06-Oct-18 10:31 34.963008 -119.756926 290 4050ft 113kts
06-Oct-18 10:32 34.974558 -119.793269 290 4350ft 115kts
06-Oct-18 10:33 34.986327 -119.830654 290 4499ft 120kts
06-Oct-18 10:34 34.997957 -119.867533 290 4500ft 114kts
06-Oct-18 10:35 35.009340 -119.903937 290 4499ft 115kts
06-Oct-18 10:36 35.020765 -119.940543 290 4499ft 115kts
06-Oct-18 10:37 35.029320 -119.967964 290 4499ft 115kts
06-Oct-18 10:38 35.040712 -120.004562 290 4499ft 115kts
06-Oct-18 10:39 35.052072 -120.041099 290 4499ft 115kts
06-Oct-18 10:40 35.063470 -120.077777 290 4499ft 115kts
06-Oct-18 10:41 35.074894 -120.114402 290 4499ft 115kts
06-Oct-18 10:42 35.086290 -120.151131 290 4499ft 115kts
06-Oct-18 10:43 35.097636 -120.187803 290 4499ft 115kts
06-Oct-18 10:44 35.108847 -120.224069 290 4499ft 115kts
06-Oct-18 10:45 35.120115 -120.260575 290 4499ft 115kts
06-Oct-18 10:46 35.131468 -120.297405 290 4499ft 115kts
06-Oct-18 10:47 35.142758 -120.334069 290 4499ft 115kts
06-Oct-18 10:48 35.153379 -120.368523 290 4493ft 100kts
06-Oct-18 10:49 35.164305 -120.399187 293 4430ft 100kts
06-Oct-18 10:50 35.175275 -120.430593 293 3809ft 100kts
06-Oct-18 10:51 35.186034 -120.461862 292 3199ft 100kts
06-Oct-18 10:52 35.195871 -120.495194 278 2629ft 109kts
06-Oct-18 10:53 35.200564 -120.532091 296 2100ft 111kts
06-Oct-18 10:54 35.211148 -120.567188 265 1411ft 106kts
06-Oct-18 10:55 35.215263 -120.598284 293 1050ft 90kts
06-Oct-18 10:56 35.226948 -120.622961 305 470ft 75kts
06-Oct-18 10:57 35.237747 -120.641742 305 215ft 26kts
06-Oct-18 10:58 35.240658 -120.647535 229 215ft 7kts
06-Oct-18 10:59 35.240536 -120.647659 213 215ft 0kts
06-Oct-18 11:00 35.240536 -120.647659 213 215ft 0kts
06-Oct-18 11:01 35.239328 -120.647284 147 215ft 5kts
06-Oct-18 11:02 35.238280 -120.646040 155 215ft 1kts
06-Oct-18 11:03 35.238193 -120.645844 87 215ft 0kts
06-Oct-18 11:04 35.238193 -120.645844 87 215ft 0kts
06-Oct-18 11:05 35.238193 -120.645844 87 215ft 0kts
06-Oct-18 11:06 35.238193 -120.645844 87 215ft 0kts
06-Oct-18 11:07 35.238193 -120.645844 87 215ft 0kts
06-Oct-18 11:08 35.238193 -120.645844 87 215ft 0kts
06-Oct-18 11:09 35.238193 -120.645844 87 215ft 0kts
06-Oct-18 11:10 35.238193 -120.645844 87 215ft 0kts
06-Oct-18 11:11 35.238193 -120.645844 87 215ft 0kts

Navigation Log

Ident Type
Flight plan parsing failed, navigation log unavailable